Buoy 41503

sailwx.info

Track history (hours):
 
Tides and Currents Weather Stations Pressure Air Temp Water Temp Dewpoint Dewpoint Depression Visibility Wind Speed Wind Dir Waves Ship Positions

Drifting buoy 41503

Last reported at 2015-Jul-08 01:03 UTC. Time now 2015-Jul-08 02:14 UTC.
Position N 38°00' W 058°12'.

Water temperature 26.2 ° C

Date/timePositionNaut miles runAvg speedWind from/ knotsBaromVisibWave heightAir tempDewpointWater temp
2015-Jul-08 01:03N 38°00' W 058°12'111.2 26.2
2015-Jul-08 00:59N 37°60' W 058°11'2 0.4 26.2
2015-Jul-07 20:58N 37°59' W 058°09'2 2.1 26.6
2015-Jul-07 20:01N 37°59' W 058°07'1 1.3 26.5
2015-Jul-07 19:10N 37°59' W 058°05'0 1.5 26.5
2015-Jul-07 19:04N 37°59' W 058°05'1 1.0 26.5
2015-Jul-07 18:16N 37°59' W 058°04'3 0.8 26.3
2015-Jul-07 14:28N 38°01' W 058°01'1 1.2 25.4
2015-Jul-07 13:40N 38°01' W 058°02'1 4.0 25.4
2015-Jul-07 13:30N 38°02' W 058°02'1 0.4
2015-Jul-07 11:58N 38°03' W 058°02'0 0.0 25.1
2015-Jul-07 11:52N 38°03' W 058°02'0 0.3 25.1
2015-Jul-07 11:08N 38°02' W 058°02'0 0.0 25.1
2015-Jul-07 10:23N 38°02' W 058°02'0 1.6 25.1
2015-Jul-07 10:16N 38°03' W 058°02'0 2.5 25.1
2015-Jul-07 10:09N 38°03' W 058°02'0 6.3 25.1
2015-Jul-07 10:05N 38°03' W 058°02'0 0.3 25.1
2015-Jul-07 09:31N 38°03' W 058°02'0 0.4 25.1
2015-Jul-07 08:44N 38°03' W 058°02'0 0.3 25.1
2015-Jul-07 08:31N 38°02' W 058°02'0 1.5 25.1
2015-Jul-07 08:25N 38°03' W 058°03'0 0.2 25.1
2015-Jul-07 07:53N 38°02' W 058°03'1 0.5 25.2
2015-Jul-07 06:04N 38°02' W 058°02'0 1.2 25.3
2015-Jul-07 06:01N 38°02' W 058°02'325.9 25.3
2015-Jul-07 05:55N 38°01' W 057°59'0 0.0 25.3
2015-Jul-07 02:58N 38°01' W 057°59'0 0.0 25.0
2015-Jul-07 02:09N 38°01' W 057°59'0 2.8 25.0
2015-Jul-07 01:59N 38°01' W 057°58'1 0.5 25.0
2015-Jul-06 23:41N 38°02' W 057°57'0 2.3 25.2
2015-Jul-06 23:37N 38°02' W 057°57'113.3 25.2
2015-Jul-06 23:34N 38°03' W 057°57'1 1.3 25.2
2015-Jul-06 22:56N 38°03' W 057°57'0 2.7 25.3
2015-Jul-06 22:46N 38°03' W 057°57'0 0.5 25.3
2015-Jul-06 21:52N 38°03' W 057°57'0 3.1 25.3
2015-Jul-06 21:46N 38°03' W 057°57'0 0.8 25.3
2015-Jul-06 21:22N 38°04' W 057°57'113.7 25.4
2015-Jul-06 21:17N 38°05' W 057°57'0 0.1 25.4
2015-Jul-06 20:13N 38°05' W 057°57'1 1.2 25.4
2015-Jul-06 19:16N 38°06' W 057°56'3 1.1 25.4
2015-Jul-06 15:58N 38°09' W 057°58'0 0.6 25.1
2015-Jul-06 15:39N 38°09' W 057°58'1 0.8 25.0
2015-Jul-06 14:46N 38°10' W 057°58'2 0.5 24.9
2015-Jul-06 10:55N 38°11' W 058°00'0 0.1 24.7
2015-Jul-06 09:15N 38°11' W 058°00'1 0.6 24.8
2015-Jul-06 07:33N 38°12' W 057°59'7 1.0 24.8
2015-Jul-06 00:03N 38°17' W 057°53'1 9.7 24.9
2015-Jul-05 23:56N 38°18' W 057°53'1 0.8 24.9
2015-Jul-05 22:04N 38°20' W 057°54'0 3.0 24.9
2015-Jul-05 21:58N 38°20' W 057°54'2 1.0 24.9
2015-Jul-05 20:12N 38°21' W 057°55'0 0.0 24.9
2015-Jul-05 20:06N 38°21' W 057°55'1 6.9 24.9
2015-Jul-05 19:59N 38°22' W 057°56'1 0.5 24.9
2015-Jul-05 18:41N 38°23' W 057°56'1 0.7 24.8
2015-Jul-05 17:53N 38°23' W 057°57'210.2 24.8
2015-Jul-05 17:43N 38°23' W 057°59'0 0.1 24.8
2015-Jul-05 16:10N 38°23' W 057°59'1 1.0 24.8
2015-Jul-05 15:07N 38°23' W 058°00'1 0.4 24.8
2015-Jul-05 12:02N 38°23' W 058°02'112.2 24.8
2015-Jul-05 11:59N 38°22' W 058°02'0 0.0 24.8
2015-Jul-05 11:23N 38°22' W 058°02'0 0.2 24.8
2015-Jul-05 09:46N 38°22' W 058°02'0 0.3 24.8
2015-Jul-05 08:07N 38°23' W 058°02'0 1.3 24.9
2015-Jul-05 08:02N 38°23' W 058°02'0 7.9 24.9
2015-Jul-05 07:59N 38°23' W 058°02'2 1.3 24.9
2015-Jul-05 06:15N 38°24' W 058°04'0 0.0 24.9
2015-Jul-05 02:49N 38°24' W 058°04'0 0.4 25.0
2015-Jul-05 02:01N 38°25' W 058°05'1 0.6 25.0
2015-Jul-05 01:00N 38°25' W 058°05'2 0.6 25.0
2015-Jul-04 22:16N 38°24' W 058°07'0 3.6 25.1
2015-Jul-04 22:10N 38°24' W 058°07'0 0.0 25.1
2015-Jul-04 22:00N 38°24' W 058°07'3 0.7
2015-Jul-04 18:04N 38°22' W 058°09'0 1.9 25.4
2015-Jul-04 18:01N 38°22' W 058°09'1 0.6 25.4
2015-Jul-04 16:22N 38°21' W 058°09'1 0.3 25.2
2015-Jul-04 13:50N 38°20' W 058°08'0 0.2 24.7
2015-Jul-04 12:06N 38°20' W 058°08'115.2 24.6
2015-Jul-04 12:04N 38°21' W 058°08'0 5.8 24.6
2015-Jul-04 11:59N 38°20' W 058°08'0 0.1 24.6
2015-Jul-04 09:09N 38°20' W 058°08'0 2.7 24.5
2015-Jul-04 09:01N 38°21' W 058°08'0 0.2 24.5
2015-Jul-04 08:38N 38°21' W 058°08'0 0.2 24.5
2015-Jul-04 08:16N 38°21' W 058°08'011.9
2015-Jul-04 08:14N 38°21' W 058°07'111.4 24.5
2015-Jul-04 08:11N 38°21' W 058°08'1 0.5 24.5
2015-Jul-04 04:54N 38°22' W 058°09'4 0.7 24.5
2015-Jul-03 23:50N 38°22' W 058°13'0 0.0 24.5
2015-Jul-03 23:03N 38°22' W 058°13'0 0.4 24.6
2015-Jul-03 22:29N 38°22' W 058°14'0 0.0 24.6
2015-Jul-03 22:26N 38°22' W 058°14'112.1 24.6
2015-Jul-03 22:20N 38°21' W 058°14'0 0.0 24.6
2015-Jul-03 20:57N 38°21' W 058°14'0 1.1 24.6
2015-Jul-03 20:46N 38°21' W 058°14'1 0.7 24.7
2015-Jul-03 19:06N 38°20' W 058°15'0 1.3 24.6
2015-Jul-03 19:01N 38°20' W 058°15'0 0.4 24.6
2015-Jul-03 18:15N 38°20' W 058°15'0 0.2 24.6
2015-Jul-03 16:31N 38°19' W 058°15'0 0.4 24.5
2015-Jul-03 15:47N 38°20' W 058°16'0 0.0 24.5
2015-Jul-03 15:00N 38°20' W 058°16'0 2.0 24.5
2015-Jul-03 14:54N 38°20' W 058°15'0 0.0 24.5
2015-Jul-03 14:09N 38°20' W 058°15'1 0.9 24.5
2015-Jul-03 13:16N 38°20' W 058°16'121.1 24.5
2015-Jul-03 13:14N 38°20' W 058°17'1 0.3 24.5
2015-Jul-03 11:00N 38°20' W 058°18'0 0.0
2015-Jul-03 10:59N 38°20' W 058°18'0 8.5 24.4
2015-Jul-03 10:56N 38°20' W 058°17'0 3.6 24.4
2015-Jul-03 10:49N 38°20' W 058°18'1 1.1 24.4
2015-Jul-03 09:37N 38°20' W 058°20'0 0.3 24.4
2015-Jul-03 09:16N 38°20' W 058°20'0 7.9 24.4
2015-Jul-03 09:13N 38°20' W 058°20'0 7.9 24.4
2015-Jul-03 09:10N 38°20' W 058°20'1 1.5 24.4
2015-Jul-03 08:26N 38°21' W 058°21'111.4 24.4
2015-Jul-03 08:22N 38°21' W 058°22'0 0.0 24.4
2015-Jul-03 07:53N 38°21' W 058°22'1 0.9 24.4
2015-Jul-03 06:50N 38°21' W 058°23'212.7 24.4
2015-Jul-03 06:41N 38°22' W 058°24'0 0.0 24.4
2015-Jul-03 05:06N 38°22' W 058°24'447.5 24.5
2015-Jul-03 05:01N 38°25' W 058°28'0 0.0 24.5
2015-Jul-03 02:39N 38°25' W 058°28'0 0.0 24.8
2015-Jul-03 01:52N 38°25' W 058°28'1 4.1 24.7
2015-Jul-03 01:42N 38°25' W 058°29'0 0.0 24.7
2015-Jul-03 01:05N 38°25' W 058°29'224.5 24.8
2015-Jul-03 01:01N 38°27' W 058°30'0 0.0 24.8
2015-Jul-03 00:11N 38°27' W 058°30'0 2.2 25.0
2015-Jul-03 00:04N 38°27' W 058°30'1 1.5 25.0
2015-Jul-02 23:25N 38°27' W 058°31'0 0.0 25.1
2015-Jul-02 23:22N 38°27' W 058°31'1 3.0 25.1
2015-Jul-02 22:58N 38°28' W 058°32'110.9 25.0
2015-Jul-02 22:55N 38°28' W 058°32'0 0.8 25.0
2015-Jul-02 22:34N 38°28' W 058°33'0 3.0 25.1
2015-Jul-02 22:28N 38°28' W 058°32'1 2.1 25.1
2015-Jul-02 21:54N 38°29' W 058°33'1 1.4 25.1
2015-Jul-02 20:59N 38°30' W 058°34'3 1.5 25.3
2015-Jul-02 19:15N 38°32' W 058°37'0 2.3 25.5
2015-Jul-02 19:11N 38°32' W 058°36'14 1.8 25.5
2015-Jul-02 11:12N 38°38' W 058°53'0 5.6 25.7
2015-Jul-02 11:09N 38°38' W 058°53'235.3 25.7
2015-Jul-02 11:05N 38°38' W 058°56'0 0.0 25.7
2015-Jul-02 10:03N 38°38' W 058°56'1 6.6 25.7
2015-Jul-02 09:53N 38°38' W 058°57'4 1.5 25.7
2015-Jul-02 07:00N 38°36' W 059°02'322.6 25.7
2015-Jul-02 06:53N 38°35' W 059°05'0 0.0 25.7
2015-Jul-02 05:15N 38°35' W 059°05'349.4 25.7
2015-Jul-02 05:11N 38°33' W 059°08'0 0.0 25.7
2015-Jul-02 03:02N 38°33' W 059°08'1 0.5 25.5
2015-Jul-02 01:26N 38°32' W 059°09'0 1.4
2015-Jul-02 01:24N 38°32' W 059°09'0 0.0 25.4
2015-Jul-02 01:21N 38°32' W 059°09'4 0.9 25.4
2015-Jul-01 21:11N 38°30' W 059°13'1 7.3 25.6
2015-Jul-01 20:59N 38°30' W 059°14'1 0.7 25.7
2015-Jul-01 19:58N 38°29' W 059°15'4 1.3 25.7
2015-Jul-01 16:57N 38°28' W 059°20'7 4.0 25.7
2015-Jul-01 15:12N 38°23' W 059°26'0 0.0 25.7
2015-Jul-01 14:51N 38°23' W 059°26'2 2.2 25.7
2015-Jul-01 14:06N 38°22' W 059°28'0 0.0 25.7
2015-Jul-01 13:56N 38°22' W 059°28'1 0.4 25.7
2015-Jul-01 12:02N 38°21' W 059°29'113.4 25.7
2015-Jul-01 11:57N 38°20' W 059°29'1 7.4 25.7
2015-Jul-01 11:48N 38°21' W 059°29'1 2.7 25.7
2015-Jul-01 11:23N 38°20' W 059°29'0 0.0 25.7
2015-Jul-01 11:20N 38°20' W 059°29'2 2.6 25.7
2015-Jul-01 10:27N 38°18' W 059°30'1 7.2 25.6
2015-Jul-01 10:16N 38°17' W 059°31'119.9 25.6
2015-Jul-01 10:12N 38°18' W 059°30'1 2.9 25.6
2015-Jul-01 09:45N 38°17' W 059°31'0 1.9 25.6
2015-Jul-01 09:42N 38°17' W 059°31'217.9 25.6
2015-Jul-01 09:36N 38°15' W 059°30'0 0.3 25.6
2015-Jul-01 08:47N 38°15' W 059°30'1 1.9 25.6
2015-Jul-01 08:28N 38°15' W 059°30'1 2.4 25.6
2015-Jul-01 08:01N 38°14' W 059°29'010.1 25.6
2015-Jul-01 07:59N 38°14' W 059°30'0 4.5 25.6
2015-Jul-01 07:56N 38°14' W 059°30'2 2.3 25.6
2015-Jul-01 07:12N 38°12' W 059°29'213.4 25.5
2015-Jul-01 07:02N 38°10' W 059°28'5 0.7 25.5
2015-Jul-01 00:07N 38°06' W 059°25'1 7.5 25.4
2015-Jul-01 00:03N 38°06' W 059°25'1 0.6 25.4
2015-Jun-30 22:05N 38°05' W 059°25'113.7 25.4
2015-Jun-30 22:02N 38°04' W 059°25'0 0.1 25.4
2015-Jun-30 21:14N 38°04' W 059°25'7 1.7 25.4
2015-Jun-30 17:07N 37°57' W 059°28'4 3.7 25.2
2015-Jun-30 15:57N 37°53' W 059°27'6 1.2
2015-Jun-30 10:43N 37°47' W 059°23'2 2.3 24.8
2015-Jun-30 09:57N 37°46' W 059°21'1 0.9 24.8
2015-Jun-30 08:59N 37°46' W 059°20'235.8 24.8
2015-Jun-30 08:56N 37°45' W 059°18'0 0.0 24.8
2015-Jun-30 08:13N 37°45' W 059°18'0 1.2 24.8
2015-Jun-30 08:10N 37°45' W 059°18'122.2 24.8
2015-Jun-30 08:06N 37°45' W 059°16'3 0.7 24.8
2015-Jun-30 02:52N 37°44' W 059°12'1 1.3 24.8
2015-Jun-30 02:05N 37°44' W 059°11'0 0.1 24.8
2015-Jun-30 01:04N 37°44' W 059°11'4 1.1 24.7
2015-Jun-29 20:56N 37°40' W 059°11'2 0.8 24.6
2015-Jun-29 19:00N 37°38' W 059°10'3 3.6 24.5
2015-Jun-29 18:09N 37°35' W 059°08'0 0.0 24.5
2015-Jun-29 17:15N 37°35' W 059°08'6 1.8 24.4
2015-Jun-29 13:54N 37°32' W 059°02'0 0.3 23.9
2015-Jun-29 13:01N 37°32' W 059°02'1 1.0 23.9
2015-Jun-29 12:10N 37°31' W 059°01'0 1.8 23.8
2015-Jun-29 12:08N 37°31' W 059°01'112.4 23.8
2015-Jun-29 12:05N 37°31' W 059°00'0 0.5 23.8
2015-Jun-29 11:15N 37°31' W 058°60'111.8 23.8
2015-Jun-29 11:08N 37°31' W 058°58'0 0.0 23.8
2015-Jun-29 10:09N 37°31' W 058°58'0 1.9 23.8
2015-Jun-29 09:57N 37°32' W 058°58'1 2.7 23.8
2015-Jun-29 09:27N 37°33' W 058°57'4 0.4 23.8
2015-Jun-28 23:54N 37°31' W 059°01'3 3.9 23.8
2015-Jun-28 23:03N 37°28' W 058°59'0 0.0 23.8
2015-Jun-28 22:54N 37°28' W 058°59'3 0.9 23.8
2015-Jun-28 20:04N 37°26' W 058°57'0 0.0 23.8
2015-Jun-28 20:00N 37°26' W 058°57'2 2.0 23.8
2015-Jun-28 19:10N 37°25' W 058°55'0 3.2 23.9
2015-Jun-28 19:05N 37°25' W 058°55'2 2.3 23.9
2015-Jun-28 18:18N 37°24' W 058°53'2 0.9 23.9
2015-Jun-28 15:50N 37°24' W 058°50'1 1.1 23.9
2015-Jun-28 15:07N 37°24' W 058°49'1 9.0 23.8
2015-Jun-28 14:58N 37°24' W 058°48'3 0.6 23.8
2015-Jun-28 09:59N 37°27' W 058°47'118.3 23.7
2015-Jun-28 09:55N 37°28' W 058°48'0 5.7 23.7
2015-Jun-28 09:51N 37°28' W 058°48'1 0.4 23.7
2015-Jun-28 06:00N 37°28' W 058°49'472.2 23.8
2015-Jun-28 05:57N 37°25' W 058°49'0 0.0 23.8
2015-Jun-28 01:55N 37°25' W 058°49'0 0.0 23.9
2015-Jun-28 01:52N 37°25' W 058°49'2 3.3 23.9
2015-Jun-28 01:09N 37°23' W 058°47'0 0.0 23.9
2015-Jun-28 01:06N 37°23' W 058°47'   23.9
Track history (hours):
 
Tides and Currents Weather Stations Pressure Air Temp Water Temp Dewpoint Dewpoint Depression Visibility Wind Speed Wind Dir Waves Ship Positions

Drifting buoy 41503

Last reported at 2015-Jul-08 01:03 UTC. Time now 2015-Jul-08 02:14 UTC.
Position N 38°00' W 058°12'.

Water temperature 26.2 ° C

Date/timePositionNaut miles runAvg speedWind from/ knotsBaromVisibWave heightAir tempDewpointWater temp
2015-Jul-08 01:03N 38°00' W 058°12'111.2 26.2
2015-Jul-08 00:59N 37°60' W 058°11'2 0.4 26.2
2015-Jul-07 20:58N 37°59' W 058°09'2 2.1 26.6
2015-Jul-07 20:01N 37°59' W 058°07'1 1.3 26.5
2015-Jul-07 19:10N 37°59' W 058°05'0 1.5 26.5
2015-Jul-07 19:04N 37°59' W 058°05'1 1.0 26.5
2015-Jul-07 18:16N 37°59' W 058°04'3 0.8 26.3
2015-Jul-07 14:28N 38°01' W 058°01'1 1.2 25.4
2015-Jul-07 13:40N 38°01' W 058°02'1 4.0 25.4
2015-Jul-07 13:30N 38°02' W 058°02'1 0.4
2015-Jul-07 11:58N 38°03' W 058°02'0 0.0 25.1
2015-Jul-07 11:52N 38°03' W 058°02'0 0.3 25.1
2015-Jul-07 11:08N 38°02' W 058°02'0 0.0 25.1
2015-Jul-07 10:23N 38°02' W 058°02'0 1.6 25.1
2015-Jul-07 10:16N 38°03' W 058°02'0 2.5 25.1
2015-Jul-07 10:09N 38°03' W 058°02'0 6.3 25.1
2015-Jul-07 10:05N 38°03' W 058°02'0 0.3 25.1
2015-Jul-07 09:31N 38°03' W 058°02'0 0.4 25.1
2015-Jul-07 08:44N 38°03' W 058°02'0 0.3 25.1
2015-Jul-07 08:31N 38°02' W 058°02'0 1.5 25.1
2015-Jul-07 08:25N 38°03' W 058°03'0 0.2 25.1
2015-Jul-07 07:53N 38°02' W 058°03'1 0.5 25.2
2015-Jul-07 06:04N 38°02' W 058°02'0 1.2 25.3
2015-Jul-07 06:01N 38°02' W 058°02'325.9 25.3
2015-Jul-07 05:55N 38°01' W 057°59'0 0.0 25.3
2015-Jul-07 02:58N 38°01' W 057°59'0 0.0 25.0
2015-Jul-07 02:09N 38°01' W 057°59'0 2.8 25.0
2015-Jul-07 01:59N 38°01' W 057°58'1 0.5 25.0
2015-Jul-06 23:41N 38°02' W 057°57'0 2.3 25.2
2015-Jul-06 23:37N 38°02' W 057°57'113.3 25.2
2015-Jul-06 23:34N 38°03' W 057°57'1 1.3 25.2
2015-Jul-06 22:56N 38°03' W 057°57'0 2.7 25.3
2015-Jul-06 22:46N 38°03' W 057°57'0 0.5 25.3
2015-Jul-06 21:52N 38°03' W 057°57'0 3.1 25.3
2015-Jul-06 21:46N 38°03' W 057°57'0 0.8 25.3
2015-Jul-06 21:22N 38°04' W 057°57'113.7 25.4
2015-Jul-06 21:17N 38°05' W 057°57'0 0.1 25.4
2015-Jul-06 20:13N 38°05' W 057°57'1 1.2 25.4
2015-Jul-06 19:16N 38°06' W 057°56'3 1.1 25.4
2015-Jul-06 15:58N 38°09' W 057°58'0 0.6 25.1
2015-Jul-06 15:39N 38°09' W 057°58'1 0.8 25.0
2015-Jul-06 14:46N 38°10' W 057°58'2 0.5 24.9
2015-Jul-06 10:55N 38°11' W 058°00'0 0.1 24.7
2015-Jul-06 09:15N 38°11' W 058°00'1 0.6 24.8
2015-Jul-06 07:33N 38°12' W 057°59'7 1.0 24.8
2015-Jul-06 00:03N 38°17' W 057°53'1 9.7 24.9
2015-Jul-05 23:56N 38°18' W 057°53'1 0.8 24.9
2015-Jul-05 22:04N 38°20' W 057°54'0 3.0 24.9
2015-Jul-05 21:58N 38°20' W 057°54'2 1.0 24.9
2015-Jul-05 20:12N 38°21' W 057°55'0 0.0 24.9
2015-Jul-05 20:06N 38°21' W 057°55'1 6.9 24.9
2015-Jul-05 19:59N 38°22' W 057°56'1 0.5 24.9
2015-Jul-05 18:41N 38°23' W 057°56'1 0.7 24.8
2015-Jul-05 17:53N 38°23' W 057°57'210.2 24.8
2015-Jul-05 17:43N 38°23' W 057°59'0 0.1 24.8
2015-Jul-05 16:10N 38°23' W 057°59'1 1.0 24.8
2015-Jul-05 15:07N 38°23' W 058°00'1 0.4 24.8
2015-Jul-05 12:02N 38°23' W 058°02'112.2 24.8
2015-Jul-05 11:59N 38°22' W 058°02'0 0.0 24.8
2015-Jul-05 11:23N 38°22' W 058°02'0 0.2 24.8
2015-Jul-05 09:46N 38°22' W 058°02'0 0.3 24.8
2015-Jul-05 08:07N 38°23' W 058°02'0 1.3 24.9
2015-Jul-05 08:02N 38°23' W 058°02'0 7.9 24.9
2015-Jul-05 07:59N 38°23' W 058°02'2 1.3 24.9
2015-Jul-05 06:15N 38°24' W 058°04'0 0.0 24.9
2015-Jul-05 02:49N 38°24' W 058°04'0 0.4 25.0
2015-Jul-05 02:01N 38°25' W 058°05'1 0.6 25.0
2015-Jul-05 01:00N 38°25' W 058°05'2 0.6 25.0
2015-Jul-04 22:16N 38°24' W 058°07'0 3.6 25.1
2015-Jul-04 22:10N 38°24' W 058°07'0 0.0 25.1
2015-Jul-04 22:00N 38°24' W 058°07'3 0.7
2015-Jul-04 18:04N 38°22' W 058°09'0 1.9 25.4
2015-Jul-04 18:01N 38°22' W 058°09'1 0.6 25.4
2015-Jul-04 16:22N 38°21' W 058°09'1 0.3 25.2
2015-Jul-04 13:50N 38°20' W 058°08'0 0.2 24.7
2015-Jul-04 12:06N 38°20' W 058°08'115.2 24.6
2015-Jul-04 12:04N 38°21' W 058°08'0 5.8 24.6
2015-Jul-04 11:59N 38°20' W 058°08'0 0.1 24.6
2015-Jul-04 09:09N 38°20' W 058°08'0 2.7 24.5
2015-Jul-04 09:01N 38°21' W 058°08'0 0.2 24.5
2015-Jul-04 08:38N 38°21' W 058°08'0 0.2 24.5
2015-Jul-04 08:16N 38°21' W 058°08'011.9
2015-Jul-04 08:14N 38°21' W 058°07'111.4 24.5
2015-Jul-04 08:11N 38°21' W 058°08'1 0.5 24.5
2015-Jul-04 04:54N 38°22' W 058°09'4 0.7 24.5
2015-Jul-03 23:50N 38°22' W 058°13'0 0.0 24.5
2015-Jul-03 23:03N 38°22' W 058°13'0 0.4 24.6
2015-Jul-03 22:29N 38°22' W 058°14'0 0.0 24.6
2015-Jul-03 22:26N 38°22' W 058°14'112.1 24.6
2015-Jul-03 22:20N 38°21' W 058°14'0 0.0 24.6
2015-Jul-03 20:57N 38°21' W 058°14'0 1.1 24.6
2015-Jul-03 20:46N 38°21' W 058°14'1 0.7 24.7
2015-Jul-03 19:06N 38°20' W 058°15'0 1.3 24.6
2015-Jul-03 19:01N 38°20' W 058°15'0 0.4 24.6
2015-Jul-03 18:15N 38°20' W 058°15'0 0.2 24.6
2015-Jul-03 16:31N 38°19' W 058°15'0 0.4 24.5
2015-Jul-03 15:47N 38°20' W 058°16'0 0.0 24.5
2015-Jul-03 15:00N 38°20' W 058°16'0 2.0 24.5
2015-Jul-03 14:54N 38°20' W 058°15'0 0.0 24.5
2015-Jul-03 14:09N 38°20' W 058°15'1 0.9 24.5
2015-Jul-03 13:16N 38°20' W 058°16'121.1 24.5
2015-Jul-03 13:14N 38°20' W 058°17'1 0.3 24.5
2015-Jul-03 11:00N 38°20' W 058°18'0 0.0
2015-Jul-03 10:59N 38°20' W 058°18'0 8.5 24.4
2015-Jul-03 10:56N 38°20' W 058°17'0 3.6 24.4
2015-Jul-03 10:49N 38°20' W 058°18'1 1.1 24.4
2015-Jul-03 09:37N 38°20' W 058°20'0 0.3 24.4
2015-Jul-03 09:16N 38°20' W 058°20'0 7.9 24.4
2015-Jul-03 09:13N 38°20' W 058°20'0 7.9 24.4
2015-Jul-03 09:10N 38°20' W 058°20'1 1.5 24.4
2015-Jul-03 08:26N 38°21' W 058°21'111.4 24.4
2015-Jul-03 08:22N 38°21' W 058°22'0 0.0 24.4
2015-Jul-03 07:53N 38°21' W 058°22'1 0.9 24.4
2015-Jul-03 06:50N 38°21' W 058°23'212.7 24.4
2015-Jul-03 06:41N 38°22' W 058°24'0 0.0 24.4
2015-Jul-03 05:06N 38°22' W 058°24'447.5 24.5
2015-Jul-03 05:01N 38°25' W 058°28'0 0.0 24.5
2015-Jul-03 02:39N 38°25' W 058°28'0 0.0 24.8
2015-Jul-03 01:52N 38°25' W 058°28'1 4.1 24.7
2015-Jul-03 01:42N 38°25' W 058°29'0 0.0 24.7
2015-Jul-03 01:05N 38°25' W 058°29'224.5 24.8
2015-Jul-03 01:01N 38°27' W 058°30'0 0.0 24.8
2015-Jul-03 00:11N 38°27' W 058°30'0 2.2 25.0
2015-Jul-03 00:04N 38°27' W 058°30'1 1.5 25.0
2015-Jul-02 23:25N 38°27' W 058°31'0 0.0 25.1
2015-Jul-02 23:22N 38°27' W 058°31'1 3.0 25.1
2015-Jul-02 22:58N 38°28' W 058°32'110.9 25.0
2015-Jul-02 22:55N 38°28' W 058°32'0 0.8 25.0
2015-Jul-02 22:34N 38°28' W 058°33'0 3.0 25.1
2015-Jul-02 22:28N 38°28' W 058°32'1 2.1 25.1
2015-Jul-02 21:54N 38°29' W 058°33'1 1.4 25.1
2015-Jul-02 20:59N 38°30' W 058°34'3 1.5 25.3
2015-Jul-02 19:15N 38°32' W 058°37'0 2.3 25.5
2015-Jul-02 19:11N 38°32' W 058°36'14 1.8 25.5
2015-Jul-02 11:12N 38°38' W 058°53'0 5.6 25.7
2015-Jul-02 11:09N 38°38' W 058°53'235.3 25.7
2015-Jul-02 11:05N 38°38' W 058°56'0 0.0 25.7
2015-Jul-02 10:03N 38°38' W 058°56'1 6.6 25.7
2015-Jul-02 09:53N 38°38' W 058°57'4 1.5 25.7
2015-Jul-02 07:00N 38°36' W 059°02'322.6 25.7
2015-Jul-02 06:53N 38°35' W 059°05'0 0.0 25.7
2015-Jul-02 05:15N 38°35' W 059°05'349.4 25.7
2015-Jul-02 05:11N 38°33' W 059°08'0 0.0 25.7
2015-Jul-02 03:02N 38°33' W 059°08'1 0.5 25.5
2015-Jul-02 01:26N 38°32' W 059°09'0 1.4
2015-Jul-02 01:24N 38°32' W 059°09'0 0.0 25.4
2015-Jul-02 01:21N 38°32' W 059°09'4 0.9 25.4
2015-Jul-01 21:11N 38°30' W 059°13'1 7.3 25.6
2015-Jul-01 20:59N 38°30' W 059°14'1 0.7 25.7
2015-Jul-01 19:58N 38°29' W 059°15'4 1.3 25.7
2015-Jul-01 16:57N 38°28' W 059°20'7 4.0 25.7
2015-Jul-01 15:12N 38°23' W 059°26'0 0.0 25.7
2015-Jul-01 14:51N 38°23' W 059°26'2 2.2 25.7
2015-Jul-01 14:06N 38°22' W 059°28'0 0.0 25.7
2015-Jul-01 13:56N 38°22' W 059°28'1 0.4 25.7
2015-Jul-01 12:02N 38°21' W 059°29'113.4 25.7
2015-Jul-01 11:57N 38°20' W 059°29'1 7.4 25.7
2015-Jul-01 11:48N 38°21' W 059°29'1 2.7 25.7
2015-Jul-01 11:23N 38°20' W 059°29'0 0.0 25.7
2015-Jul-01 11:20N 38°20' W 059°29'2 2.6 25.7
2015-Jul-01 10:27N 38°18' W 059°30'1 7.2 25.6
2015-Jul-01 10:16N 38°17' W 059°31'119.9 25.6
2015-Jul-01 10:12N 38°18' W 059°30'1 2.9 25.6
2015-Jul-01 09:45N 38°17' W 059°31'0 1.9 25.6
2015-Jul-01 09:42N 38°17' W 059°31'217.9 25.6
2015-Jul-01 09:36N 38°15' W 059°30'0 0.3 25.6
2015-Jul-01 08:47N 38°15' W 059°30'1 1.9 25.6
2015-Jul-01 08:28N 38°15' W 059°30'1 2.4 25.6
2015-Jul-01 08:01N 38°14' W 059°29'010.1 25.6
2015-Jul-01 07:59N 38°14' W 059°30'0 4.5 25.6
2015-Jul-01 07:56N 38°14' W 059°30'2 2.3 25.6
2015-Jul-01 07:12N 38°12' W 059°29'213.4 25.5
2015-Jul-01 07:02N 38°10' W 059°28'5 0.7 25.5
2015-Jul-01 00:07N 38°06' W 059°25'1 7.5 25.4
2015-Jul-01 00:03N 38°06' W 059°25'1 0.6 25.4
2015-Jun-30 22:05N 38°05' W 059°25'113.7 25.4
2015-Jun-30 22:02N 38°04' W 059°25'0 0.1 25.4
2015-Jun-30 21:14N 38°04' W 059°25'7 1.7 25.4
2015-Jun-30 17:07N 37°57' W 059°28'4 3.7 25.2
2015-Jun-30 15:57N 37°53' W 059°27'6 1.2
2015-Jun-30 10:43N 37°47' W 059°23'2 2.3 24.8
2015-Jun-30 09:57N 37°46' W 059°21'1 0.9 24.8
2015-Jun-30 08:59N 37°46' W 059°20'235.8 24.8
2015-Jun-30 08:56N 37°45' W 059°18'0 0.0 24.8
2015-Jun-30 08:13N 37°45' W 059°18'0 1.2 24.8
2015-Jun-30 08:10N 37°45' W 059°18'122.2 24.8
2015-Jun-30 08:06N 37°45' W 059°16'3 0.7 24.8
2015-Jun-30 02:52N 37°44' W 059°12'1 1.3 24.8
2015-Jun-30 02:05N 37°44' W 059°11'0 0.1 24.8
2015-Jun-30 01:04N 37°44' W 059°11'4 1.1 24.7
2015-Jun-29 20:56N 37°40' W 059°11'2 0.8 24.6
2015-Jun-29 19:00N 37°38' W 059°10'3 3.6 24.5
2015-Jun-29 18:09N 37°35' W 059°08'0 0.0 24.5
2015-Jun-29 17:15N 37°35' W 059°08'6 1.8 24.4
2015-Jun-29 13:54N 37°32' W 059°02'0 0.3 23.9
2015-Jun-29 13:01N 37°32' W 059°02'1 1.0 23.9
2015-Jun-29 12:10N 37°31' W 059°01'0 1.8 23.8
2015-Jun-29 12:08N 37°31' W 059°01'112.4 23.8
2015-Jun-29 12:05N 37°31' W 059°00'0 0.5 23.8
2015-Jun-29 11:15N 37°31' W 058°60'111.8 23.8
2015-Jun-29 11:08N 37°31' W 058°58'0 0.0 23.8
2015-Jun-29 10:09N 37°31' W 058°58'0 1.9 23.8
2015-Jun-29 09:57N 37°32' W 058°58'1 2.7 23.8
2015-Jun-29 09:27N 37°33' W 058°57'4 0.4 23.8
2015-Jun-28 23:54N 37°31' W 059°01'3 3.9 23.8
2015-Jun-28 23:03N 37°28' W 058°59'0 0.0 23.8
2015-Jun-28 22:54N 37°28' W 058°59'3 0.9 23.8
2015-Jun-28 20:04N 37°26' W 058°57'0 0.0 23.8
2015-Jun-28 20:00N 37°26' W 058°57'2 2.0 23.8
2015-Jun-28 19:10N 37°25' W 058°55'0 3.2 23.9
2015-Jun-28 19:05N 37°25' W 058°55'2 2.3 23.9
2015-Jun-28 18:18N 37°24' W 058°53'2 0.9 23.9
2015-Jun-28 15:50N 37°24' W 058°50'1 1.1 23.9
2015-Jun-28 15:07N 37°24' W 058°49'1 9.0 23.8
2015-Jun-28 14:58N 37°24' W 058°48'3 0.6 23.8
2015-Jun-28 09:59N 37°27' W 058°47'118.3 23.7
2015-Jun-28 09:55N 37°28' W 058°48'0 5.7 23.7
2015-Jun-28 09:51N 37°28' W 058°48'1 0.4 23.7
2015-Jun-28 06:00N 37°28' W 058°49'472.2 23.8
2015-Jun-28 05:57N 37°25' W 058°49'0 0.0 23.8
2015-Jun-28 01:55N 37°25' W 058°49'0 0.0 23.9
2015-Jun-28 01:52N 37°25' W 058°49'2 3.3 23.9
2015-Jun-28 01:09N 37°23' W 058°47'0 0.0 23.9
2015-Jun-28 01:06N 37°23' W 058°47'   23.9

Dump ship's entire track history